Terminal Aerodrome Forecast
Issued by NWS

Home | Current Version | Previous Version | Text Only | Print | Product List | Glossary On
Versions: 1 2 3 4 5 6 7 8 9 10 11 12 13 14 15 16 17 18 19
000
FTUS41 KBOX 231341 AAA
TAFFMH
TAF AMD
KFMH 231341Z 2314/2412 04012G20KT P6SM FEW020 SCT024 OVC070
     FM232200 06008KT P6SM SCT110
     FM240300 10006KT P6SM BKN110
     FM241100 10010KT P6SM OVC090=

USA.gov is the U.S. government's official web portal to all federal, state and local government web resources and services.